Time,TemperatureF,DewpointF,PressureIn,WindDirection,WindDirectionDegrees,WindSpeedMPH,WindSpeedGustMPH,Humidity,HourlyPrecipIn,Conditions,Clouds,dailyrainin,SoftwareType,DateUTC
2013-05-23 00:00:00,76.1,65.6,29.95,SSW,213,0.0,0.0,70,0.00,CLR,,0.00,WeatherDisplay:10.37,2013-05-23 04:00:00,
2013-05-23 00:01:00,76.1,65.6,29.95,SSW,213,0.0,0.0,70,0.00,CLR,,0.00,WeatherDisplay:10.37,2013-05-23 04:01:00,
2013-05-23 00:02:00,75.9,65.4,29.95,SSW,213,0.0,0.0,70,0.00,CLR,,0.00,WeatherDisplay:10.37,2013-05-23 04:02:00,
2013-05-23 00:07:00,75.9,65.4,29.95,SSW,213,0.0,0.0,70,0.00,CLR,,0.00,WeatherDisplay:10.37,2013-05-23 04:07:00,
2013-05-23 00:16:00,75.7,65.7,29.95,SSW,213,0.0,0.0,71,0.00,CLR,,0.00,WeatherDisplay:10.37,2013-05-23 04:16:00,
2013-05-23 00:21:00,75.7,65.7,29.95,SW,214,0.0,0.0,71,0.00,CLR,,0.00,WeatherDisplay:10.37,2013-05-23 04:21:00,
2013-05-23 00:31:00,75.6,65.9,29.95,SE,137,0.0,0.0,72,0.00,CLR,,0.00,WeatherDisplay:10.37,2013-05-23 04:31:00,
2013-05-23 00:36:00,75.4,65.7,29.95,SE,137,0.0,0.0,72,0.00,CLR,,0.00,WeatherDisplay:10.37,2013-05-23 04:36:00,
2013-05-23 00:46:00,75.6,66.3,29.95,SE,137,0.0,0.0,73,0.00,CLR,,0.00,WeatherDisplay:10.37,2013-05-23 04:46:00,
2013-05-23 00:51:00,75.4,66.1,29.95,SE,137,0.0,0.0,73,0.00,CLR,,0.00,WeatherDisplay:10.37,2013-05-23 04:51:00,
2013-05-23 01:00:00,75.2,65.9,29.95,SE,137,0.0,0.0,73,0.00,CLR,,0.00,WeatherDisplay:10.37,2013-05-23 05:00:00,
2013-05-23 01:01:00,75.2,66.3,29.95,SE,137,0.0,0.0,74,0.00,FEW,,0.00,WeatherDisplay:10.37,2013-05-23 05:01:00,
2013-05-23 01:05:00,75.2,66.3,29.95,SE,137,0.0,0.0,74,0.00,FEW,,0.00,WeatherDisplay:10.37,2013-05-23 05:05:00,
2013-05-23 01:10:00,75.2,66.3,29.95,SE,137,0.0,0.0,74,0.00,FEW,,0.00,WeatherDisplay:10.37,2013-05-23 05:10:00,
2013-05-23 01:16:00,75.0,66.2,29.92,SE,137,0.0,0.0,74,0.00,FEW,,0.00,WeatherDisplay:10.37,2013-05-23 05:16:00,
2013-05-23 01:21:00,75.0,66.6,29.92,SE,137,0.0,0.0,75,0.00,FEW,,0.00,WeatherDisplay:10.37,2013-05-23 05:21:00,
2013-05-23 01:31:00,74.8,66.4,29.92,SE,137,0.0,0.0,75,0.00,FEW,,0.00,WeatherDisplay:10.37,2013-05-23 05:31:00,
2013-05-23 01:36:00,74.8,66.4,29.92,SE,137,0.0,0.0,75,0.00,FEW,,0.00,WeatherDisplay:10.37,2013-05-23 05:36:00,
2013-05-23 01:46:00,74.7,66.2,29.92,SE,137,0.0,0.0,75,0.00,FEW,,0.00,WeatherDisplay:10.37,2013-05-23 05:46:00,
2013-05-23 01:51:00,74.5,66.0,29.92,SE,137,0.0,0.0,75,0.00,FEW,,0.00,WeatherDisplay:10.37,2013-05-23 05:51:00,
2013-05-23 02:00:00,74.3,66.2,29.92,SE,137,0.0,0.0,76,0.00,FEW,,0.00,WeatherDisplay:10.37,2013-05-23 06:00:00,
2013-05-23 02:01:00,74.1,66.1,29.92,SE,137,0.0,0.0,76,0.00,CLR,,0.00,WeatherDisplay:10.37,2013-05-23 06:01:00,
2013-05-23 02:05:00,74.1,66.1,29.92,SE,137,0.0,0.0,76,0.00,CLR,,0.00,WeatherDisplay:10.37,2013-05-23 06:05:00,
2013-05-23 02:10:00,74.1,66.1,29.92,SE,137,0.0,0.0,76,0.00,CLR,,0.00,WeatherDisplay:10.37,2013-05-23 06:10:00,
2013-05-23 02:16:00,73.9,65.9,29.92,SE,137,0.0,0.0,76,0.00,CLR,,0.00,WeatherDisplay:10.37,2013-05-23 06:16:00,
2013-05-23 02:21:00,73.9,65.9,29.92,SE,137,0.0,0.0,76,0.00,CLR,,0.00,WeatherDisplay:10.37,2013-05-23 06:21:00,
2013-05-23 02:31:00,73.8,66.1,29.92,SE,137,0.0,0.0,77,0.00,CLR,,0.00,WeatherDisplay:10.37,2013-05-23 06:31:00,
2013-05-23 02:36:00,73.8,66.1,29.92,SE,137,0.0,0.0,77,0.00,CLR,,0.00,WeatherDisplay:10.37,2013-05-23 06:36:00,
2013-05-23 02:46:00,73.8,66.1,29.92,SE,137,0.0,0.0,77,0.00,CLR,,0.00,WeatherDisplay:10.37,2013-05-23 06:46:00,
2013-05-23 02:51:00,73.8,66.1,29.92,SE,137,0.0,0.0,77,0.00,CLR,,0.00,WeatherDisplay:10.37,2013-05-23 06:51:00,
2013-05-23 03:00:00,73.8,66.1,29.92,SE,137,0.0,0.0,77,0.00,CLR,,0.00,WeatherDisplay:10.37,2013-05-23 07:00:00,
2013-05-23 03:01:00,73.9,66.6,29.92,SE,137,0.0,0.0,78,0.00,CLR,,0.00,WeatherDisplay:10.37,2013-05-23 07:01:00,
2013-05-23 03:05:00,73.8,66.5,29.92,SE,137,0.0,0.0,78,0.00,CLR,,0.00,WeatherDisplay:10.37,2013-05-23 07:05:00,
2013-05-23 03:10:00,73.9,66.6,29.92,SE,137,0.0,0.0,78,0.00,CLR,,0.00,WeatherDisplay:10.37,2013-05-23 07:10:00,
2013-05-23 03:16:00,73.9,66.6,29.92,SE,137,0.0,0.0,78,0.00,CLR,,0.00,WeatherDisplay:10.37,2013-05-23 07:16:00,
2013-05-23 03:21:00,73.9,66.6,29.92,SE,137,0.0,0.0,78,0.00,CLR,,0.00,WeatherDisplay:10.37,2013-05-23 07:21:00,
2013-05-23 03:31:00,73.9,66.6,29.92,SE,137,0.0,0.0,78,0.00,CLR,,0.00,WeatherDisplay:10.37,2013-05-23 07:31:00,
2013-05-23 03:36:00,73.9,66.6,29.92,SE,137,0.0,0.0,78,0.00,CLR,,0.00,WeatherDisplay:10.37,2013-05-23 07:36:00,
2013-05-23 03:46:00,73.8,66.8,29.92,SE,137,0.0,0.0,79,0.00,CLR,,0.00,WeatherDisplay:10.37,2013-05-23 07:46:00,
2013-05-23 03:51:00,73.6,66.7,29.92,SE,137,0.0,0.0,79,0.00,CLR,,0.00,WeatherDisplay:10.37,2013-05-23 07:51:00,
2013-05-23 04:00:00,73.4,66.5,29.92,SE,137,0.0,0.0,79,0.00,CLR,,0.00,WeatherDisplay:10.37,2013-05-23 08:00:00,
2013-05-23 04:01:00,73.4,66.5,29.92,SE,137,0.0,0.0,79,0.00,CLR,,0.00,WeatherDisplay:10.37,2013-05-23 08:01:00,
2013-05-23 04:05:00,73.4,66.5,29.92,SE,137,0.0,0.0,79,0.00,CLR,,0.00,WeatherDisplay:10.37,2013-05-23 08:05:00,
2013-05-23 04:10:00,73.4,66.5,29.92,SE,137,0.0,0.0,79,0.00,CLR,,0.00,WeatherDisplay:10.37,2013-05-23 08:10:00,
2013-05-23 04:16:00,73.4,66.5,29.92,SE,137,0.0,0.0,79,0.00,CLR,,0.00,WeatherDisplay:10.37,2013-05-23 08:16:00,
2013-05-23 04:21:00,73.4,66.5,29.92,SE,137,0.0,0.0,79,0.00,CLR,,0.00,WeatherDisplay:10.37,2013-05-23 08:21:00,
2013-05-23 04:31:00,73.2,66.7,29.92,SE,137,0.0,0.0,80,0.00,CLR,,0.00,WeatherDisplay:10.37,2013-05-23 08:31:00,
2013-05-23 04:36:00,73.2,66.7,29.92,SE,137,0.0,0.0,80,0.00,CLR,,0.00,WeatherDisplay:10.37,2013-05-23 08:36:00,
2013-05-23 04:46:00,73.0,66.5,29.92,SE,137,0.0,0.0,80,0.00,CLR,,0.00,WeatherDisplay:10.37,2013-05-23 08:46:00,
2013-05-23 04:51:00,73.0,66.5,29.92,SE,137,0.0,0.0,80,0.00,CLR,,0.00,WeatherDisplay:10.37,2013-05-23 08:51:00,
2013-05-23 05:00:00,73.0,66.5,29.95,SE,137,0.0,0.0,80,0.00,CLR,,0.00,WeatherDisplay:10.37,2013-05-23 09:00:00,
2013-05-23 05:01:00,72.9,66.3,29.95,SE,137,0.0,0.0,80,0.00,CLR,,0.00,WeatherDisplay:10.37,2013-05-23 09:01:00,
2013-05-23 05:05:00,73.0,66.5,29.95,SE,137,0.0,0.0,80,0.00,CLR,,0.00,WeatherDisplay:10.37,2013-05-23 09:05:00,
2013-05-23 05:10:00,73.0,66.5,29.95,SE,137,0.0,0.0,80,0.00,CLR,,0.00,WeatherDisplay:10.37,2013-05-23 09:10:00,
2013-05-23 05:16:00,72.9,66.3,29.95,SE,137,0.0,0.0,80,0.00,CLR,,0.00,WeatherDisplay:10.37,2013-05-23 09:16:00,
2013-05-23 05:21:00,72.9,66.3,29.95,SE,137,0.0,0.0,80,0.00,CLR,,0.00,WeatherDisplay:10.37,2013-05-23 09:21:00,
2013-05-23 05:31:00,72.7,66.2,29.95,SE,137,0.0,0.0,80,0.00,CLR,,0.00,WeatherDisplay:10.37,2013-05-23 09:31:00,
2013-05-23 05:36:00,72.5,66.0,29.95,SE,137,0.0,0.0,80,0.00,CLR,,0.00,WeatherDisplay:10.37,2013-05-23 09:36:00,
2013-05-23 05:46:00,72.5,66.3,29.95,SE,137,0.0,0.0,81,0.00,CLR,,0.00,WeatherDisplay:10.37,2013-05-23 09:46:00,
2013-05-23 05:51:00,72.3,66.2,29.95,SE,137,0.0,0.0,81,0.00,CLR,,0.00,WeatherDisplay:10.37,2013-05-23 09:51:00,
2013-05-23 06:00:00,72.3,66.2,29.95,SE,137,0.0,0.0,81,0.00,CLR,,0.00,WeatherDisplay:10.37,2013-05-23 10:00:00,
2013-05-23 06:01:00,72.1,66.0,29.95,SE,137,0.0,0.0,81,0.00,CLR,,0.00,WeatherDisplay:10.37,2013-05-23 10:01:00,
2013-05-23 06:05:00,72.3,66.2,29.95,SE,137,0.0,0.0,81,0.00,CLR,,0.00,WeatherDisplay:10.37,2013-05-23 10:05:00,
2013-05-23 06:10:00,72.1,66.0,29.95,SE,137,0.0,0.0,81,0.00,CLR,,0.00,WeatherDisplay:10.37,2013-05-23 10:10:00,
2013-05-23 06:16:00,72.1,66.0,29.95,SE,137,0.0,0.0,81,0.00,CLR,,0.00,WeatherDisplay:10.37,2013-05-23 10:16:00,
2013-05-23 06:21:00,72.1,66.0,29.95,SE,137,0.0,0.0,81,0.00,CLR,,0.00,WeatherDisplay:10.37,2013-05-23 10:21:00,
2013-05-23 06:31:00,72.0,65.8,29.95,SE,137,0.0,0.0,81,0.00,CLR,,0.00,WeatherDisplay:10.37,2013-05-23 10:31:00,
2013-05-23 06:36:00,72.0,65.8,29.95,SE,137,0.0,0.0,81,0.00,CLR,,0.00,WeatherDisplay:10.37,2013-05-23 10:36:00,
2013-05-23 06:46:00,72.0,65.8,29.95,SE,137,0.0,0.0,81,0.00,CLR,,0.00,WeatherDisplay:10.37,2013-05-23 10:46:00,
2013-05-23 06:51:00,72.0,65.8,29.95,SE,137,0.0,0.0,81,0.00,CLR,,0.00,WeatherDisplay:10.37,2013-05-23 10:51:00,
2013-05-23 07:00:00,72.0,66.2,29.98,SE,137,0.0,0.0,82,0.00,CLR,,0.00,WeatherDisplay:10.37,2013-05-23 11:00:00,
2013-05-23 07:01:00,72.5,67.0,29.98,SE,137,0.0,0.0,83,0.00,CLR,,0.00,WeatherDisplay:10.37,2013-05-23 11:01:00,
2013-05-23 07:05:00,72.1,66.3,29.98,SE,136,0.0,0.0,82,0.00,CLR,,0.00,WeatherDisplay:10.37,2013-05-23 11:05:00,
2013-05-23 07:10:00,72.5,67.0,29.98,SE,137,0.0,0.0,83,0.00,CLR,,0.00,WeatherDisplay:10.37,2013-05-23 11:10:00,
2013-05-23 07:16:00,72.9,67.4,29.98,SE,137,0.0,0.0,83,0.00,CLR,,0.00,WeatherDisplay:10.37,2013-05-23 11:16:00,
2013-05-23 07:21:00,72.9,67.4,29.98,SE,137,0.0,0.0,83,0.00,CLR,,0.00,WeatherDisplay:10.37,2013-05-23 11:21:00,
2013-05-23 07:31:00,73.4,67.9,29.98,SE,137,0.0,0.0,83,0.00,CLR,,0.00,WeatherDisplay:10.37,2013-05-23 11:31:00,
2013-05-23 07:36:00,73.8,68.3,29.98,SE,137,0.0,0.0,83,0.00,CLR,,0.00,WeatherDisplay:10.37,2013-05-23 11:36:00,
2013-05-23 07:46:00,74.3,68.8,29.98,SE,137,0.0,0.0,83,0.00,CLR,,0.00,WeatherDisplay:10.37,2013-05-23 11:46:00,
2013-05-23 07:51:00,74.7,69.5,29.98,SE,137,0.0,0.0,84,0.00,CLR,,0.00,WeatherDisplay:10.37,2013-05-23 11:51:00,
2013-05-23 08:00:00,76.1,70.9,29.98,NNW,334,4.9,4.9,84,0.00,CLR,,0.00,WeatherDisplay:10.37,2013-05-23 12:00:00,
2013-05-23 08:01:00,77.4,72.5,29.98,NNW,346,5.8,5.8,85,0.00,CLR,,0.00,WeatherDisplay:10.37,2013-05-23 12:01:00,
2013-05-23 08:05:00,76.8,72.0,29.98,North,4,3.4,3.4,85,0.00,CLR,,0.00,WeatherDisplay:10.37,2013-05-23 12:05:00,
2013-05-23 08:10:00,77.4,72.5,29.98,North,1,3.4,3.4,85,0.00,CLR,,0.00,WeatherDisplay:10.37,2013-05-23 12:10:00,
2013-05-23 08:16:00,77.7,72.8,30.01,North,357,5.8,5.8,85,0.00,CLR,,0.00,WeatherDisplay:10.37,2013-05-23 12:16:00,
2013-05-23 08:21:00,78.3,73.4,30.01,North,349,5.8,5.8,85,0.00,CLR,,0.00,WeatherDisplay:10.37,2013-05-23 12:21:00,
2013-05-23 08:31:00,79.5,73.2,30.01,North,9,8.1,8.1,81,0.00,CLR,,0.00,WeatherDisplay:10.37,2013-05-23 12:31:00,
2013-05-23 08:36:00,79.9,71.6,30.01,WSW,255,5.8,5.8,76,0.00,CLR,,0.00,WeatherDisplay:10.37,2013-05-23 12:36:00,
2013-05-23 08:46:00,81.0,68.5,30.01,NW,321,3.4,3.4,66,0.00,SCT,,0.00,WeatherDisplay:10.37,2013-05-23 12:46:00,
2013-05-23 08:51:00,81.1,68.3,30.01,North,0,3.4,3.4,65,0.00,SCT,,0.00,WeatherDisplay:10.37,2013-05-23 12:51:00,
2013-05-23 09:00:00,81.3,68.9,30.01,WSW,243,5.8,5.8,66,0.00,SCT,,0.00,WeatherDisplay:10.37,2013-05-23 13:00:00,
2013-05-23 09:01:00,81.9,68.0,30.01,West,272,4.0,4.0,63,0.00,FEW,,0.00,WeatherDisplay:10.37,2013-05-23 13:01:00,
2013-05-23 09:05:00,81.7,68.3,30.01,NNW,348,3.6,3.6,64,0.00,FEW,,0.00,WeatherDisplay:10.37,2013-05-23 13:05:00,
2013-05-23 09:10:00,81.9,68.0,30.01,NW,326,3.6,3.6,63,0.00,FEW,,0.00,WeatherDisplay:10.37,2013-05-23 13:10:00,
2013-05-23 09:16:00,82.2,67.9,30.01,North,3,3.4,3.4,62,0.00,FEW,,0.00,WeatherDisplay:10.37,2013-05-23 13:16:00,
2013-05-23 09:21:00,82.6,66.8,30.01,WNW,297,3.4,3.4,59,0.00,FEW,,0.00,WeatherDisplay:10.37,2013-05-23 13:21:00,
2013-05-23 09:31:00,83.1,66.8,30.01,WNW,294,3.6,3.6,58,0.00,FEW,,0.00,WeatherDisplay:10.37,2013-05-23 13:31:00,
2013-05-23 09:36:00,83.1,66.8,30.01,North,357,8.1,8.1,58,0.00,FEW,,0.00,WeatherDisplay:10.37,2013-05-23 13:36:00,
2013-05-23 09:46:00,84.0,65.6,30.01,West,272,3.6,3.6,54,0.00,FEW,,0.00,WeatherDisplay:10.37,2013-05-23 13:46:00,
2013-05-23 09:51:00,84.4,64.8,30.01,WNW,296,5.8,5.8,52,0.00,FEW,,0.00,WeatherDisplay:10.37,2013-05-23 13:51:00,
2013-05-23 10:00:00,85.5,63.5,30.01,NW,324,5.8,5.8,48,0.00,FEW,,0.00,WeatherDisplay:10.37,2013-05-23 14:00:00,
2013-05-23 10:01:00,85.6,63.7,30.01,WNW,296,8.1,8.1,48,0.00,SCT,,0.00,WeatherDisplay:10.37,2013-05-23 14:01:00,
2013-05-23 10:05:00,85.6,63.7,30.01,WNW,294,5.8,5.8,48,0.00,SCT,,0.00,WeatherDisplay:10.37,2013-05-23 14:05:00,
2013-05-23 10:10:00,85.6,63.7,30.01,WSW,253,8.1,8.1,48,0.00,SCT,,0.00,WeatherDisplay:10.37,2013-05-23 14:10:00,
2013-05-23 10:16:00,85.6,64.3,30.01,North,353,5.8,5.8,49,0.00,SCT,,0.00,WeatherDisplay:10.37,2013-05-23 14:16:00,
2013-05-23 10:21:00,85.8,64.5,30.01,NNW,348,4.6,4.6,49,0.00,SCT,,0.00,WeatherDisplay:10.37,2013-05-23 14:21:00,
2013-05-23 10:31:00,86.2,63.0,30.01,NW,307,4.6,4.6,46,0.00,SCT,,0.00,WeatherDisplay:10.37,2013-05-23 14:31:00,
2013-05-23 10:36:00,85.8,63.3,30.01,North,350,3.4,3.4,47,0.00,SCT,,0.00,WeatherDisplay:10.37,2013-05-23 14:36:00,
2013-05-23 10:46:00,85.8,63.9,30.01,NNW,342,5.8,5.8,48,0.00,SCT,,0.00,WeatherDisplay:10.37,2013-05-23 14:46:00,
2013-05-23 10:51:00,86.0,63.4,30.01,SW,235,2.7,2.7,47,0.00,SCT,,0.00,WeatherDisplay:10.37,2013-05-23 14:51:00,
2013-05-23 11:00:00,86.7,63.5,30.01,NNW,340,6.3,6.3,46,0.00,SCT,,0.00,WeatherDisplay:10.37,2013-05-23 15:00:00,
2013-05-23 11:01:00,87.1,62.5,30.01,North,357,5.8,5.8,44,0.00,FEW,,0.00,WeatherDisplay:10.37,2013-05-23 15:01:00,
2013-05-23 11:05:00,87.3,62.7,30.01,WSW,255,6.9,6.9,44,0.00,FEW,,0.00,WeatherDisplay:10.37,2013-05-23 15:05:00,
2013-05-23 11:10:00,87.1,62.5,30.01,North,353,3.6,3.6,44,0.00,FEW,,0.00,WeatherDisplay:10.37,2013-05-23 15:10:00,
2013-05-23 11:16:00,87.3,62.0,30.01,ESE,106,5.8,5.8,43,0.00,FEW,,0.00,WeatherDisplay:10.37,2013-05-23 15:16:00,
2013-05-23 11:21:00,87.6,62.4,30.01,WNW,297,5.8,5.8,43,0.00,FEW,,0.00,WeatherDisplay:10.37,2013-05-23 15:21:00,
2013-05-23 11:31:00,87.4,62.2,30.01,South,169,5.8,5.8,43,0.00,FEW,,0.00,WeatherDisplay:10.37,2013-05-23 15:31:00,
2013-05-23 11:36:00,87.8,61.2,30.01,WNW,295,5.8,5.8,41,0.00,FEW,,0.00,WeatherDisplay:10.37,2013-05-23 15:36:00,
2013-05-23 11:46:00,88.7,62.7,30.01,North,350,8.1,8.1,42,0.00,FEW,,0.00,WeatherDisplay:10.37,2013-05-23 15:46:00,
2013-05-23 11:51:00,89.2,61.0,30.01,NW,310,5.8,5.8,39,0.00,FEW,,0.00,WeatherDisplay:10.37,2013-05-23 15:51:00,
2013-05-23 12:00:00,89.6,60.6,30.01,West,281,4.9,4.9,38,0.00,FEW,,0.00,WeatherDisplay:10.37,2013-05-23 16:00:00,
2013-05-23 12:01:00,89.6,61.4,30.01,North,353,4.6,4.6,39,0.00,SCT,,0.00,WeatherDisplay:10.37,2013-05-23 16:01:00,
2013-05-23 12:05:00,89.6,61.4,30.01,WNW,289,6.3,6.3,39,0.00,SCT,,0.00,WeatherDisplay:10.37,2013-05-23 16:05:00,
2013-05-23 12:10:00,89.6,61.4,30.01,NNW,330,4.9,4.9,39,0.00,SCT,,0.00,WeatherDisplay:10.37,2013-05-23 16:10:00,
2013-05-23 12:16:00,89.4,61.2,30.01,WSW,246,4.6,4.6,39,0.00,SCT,,0.00,WeatherDisplay:10.37,2013-05-23 16:16:00,
2013-05-23 12:21:00,89.2,61.8,30.01,NNW,348,5.8,5.8,40,0.00,SCT,,0.00,WeatherDisplay:10.37,2013-05-23 16:21:00,
2013-05-23 12:31:00,89.8,61.5,30.01,North,0,5.4,5.4,39,0.00,SCT,,0.00,WeatherDisplay:10.37,2013-05-23 16:31:00,
2013-05-23 12:36:00,90.1,61.1,30.01,North,357,3.4,3.4,38,0.00,SCT,,0.00,WeatherDisplay:10.37,2013-05-23 16:36:00,
2013-05-23 12:46:00,89.6,61.4,30.01,SSW,192,5.8,5.8,39,0.00,SCT,,0.00,WeatherDisplay:10.37,2013-05-23 16:46:00,
2013-05-23 12:51:00,89.6,61.4,30.01,North,350,5.8,5.8,39,0.00,SCT,,0.00,WeatherDisplay:10.37,2013-05-23 16:51:00,
2013-05-23 13:00:00,89.8,61.5,30.01,WSW,241,8.3,8.3,39,0.00,SCT,,0.00,WeatherDisplay:10.37,2013-05-23 17:00:00,
2013-05-23 13:01:00,90.0,62.4,30.01,West,281,5.8,5.8,40,0.00,CLR,,0.00,WeatherDisplay:10.37,2013-05-23 17:01:00,
2013-05-23 13:05:00,89.4,61.9,30.01,SE,135,5.8,5.8,40,0.00,CLR,,0.00,WeatherDisplay:10.37,2013-05-23 17:05:00,
2013-05-23 13:10:00,89.8,61.5,30.01,West,276,7.6,7.6,39,0.00,CLR,,0.00,WeatherDisplay:10.37,2013-05-23 17:10:00,
2013-05-23 13:16:00,90.1,61.1,30.01,WNW,292,8.1,8.1,38,0.00,CLR,,0.00,WeatherDisplay:10.37,2013-05-23 17:16:00,
2013-05-23 13:21:00,90.1,61.8,30.01,North,1,5.8,5.8,39,0.00,CLR,,0.00,WeatherDisplay:10.37,2013-05-23 17:21:00,
2013-05-23 13:31:00,90.5,62.2,30.01,WSW,245,4.6,4.6,39,0.00,CLR,,0.00,WeatherDisplay:10.37,2013-05-23 17:31:00,
2013-05-23 13:36:00,90.3,61.3,30.01,West,281,8.1,8.1,38,0.00,CLR,,0.00,WeatherDisplay:10.37,2013-05-23 17:36:00,
2013-05-23 13:46:00,89.4,61.9,30.01,NW,325,8.1,8.1,40,0.00,CLR,,0.00,WeatherDisplay:10.37,2013-05-23 17:46:00,
2013-05-23 13:51:00,89.4,61.9,30.01,NW,319,10.3,10.3,40,0.00,CLR,,0.00,WeatherDisplay:10.37,2013-05-23 17:51:00,
2013-05-23 14:00:00,89.8,61.5,30.01,WSW,258,5.8,5.8,39,0.00,CLR,,0.00,WeatherDisplay:10.37,2013-05-23 18:00:00,
2013-05-23 14:01:00,90.3,61.3,30.01,WNW,284,6.9,6.9,38,0.00,FEW,,0.00,WeatherDisplay:10.37,2013-05-23 18:01:00,
2013-05-23 14:05:00,90.1,61.8,30.01,WSW,240,5.8,5.8,39,0.00,FEW,,0.00,WeatherDisplay:10.37,2013-05-23 18:05:00,
2013-05-23 14:10:00,90.3,61.3,30.01,WSW,246,6.3,6.3,38,0.00,FEW,,0.00,WeatherDisplay:10.37,2013-05-23 18:10:00,
2013-05-23 14:16:00,90.1,61.1,30.01,SSW,207,5.8,5.8,38,0.00,FEW,,0.00,WeatherDisplay:10.37,2013-05-23 18:16:00,
2013-05-23 14:21:00,90.5,62.2,30.01,West,267,9.2,9.2,39,0.00,FEW,,0.00,WeatherDisplay:10.37,2013-05-23 18:21:00,
2013-05-23 14:31:00,89.1,60.9,30.01,WSW,258,5.8,5.8,39,0.00,FEW,,0.00,WeatherDisplay:10.37,2013-05-23 18:31:00,
2013-05-23 14:36:00,89.2,61.8,30.01,WSW,249,4.6,4.6,40,0.00,FEW,,0.00,WeatherDisplay:10.37,2013-05-23 18:36:00,
2013-05-23 14:46:00,89.4,61.2,30.01,NNW,333,10.3,10.3,39,0.00,FEW,,0.00,WeatherDisplay:10.37,2013-05-23 18:46:00,
2013-05-23 14:51:00,89.2,61.8,30.01,North,7,6.9,6.9,40,0.00,FEW,,0.00,WeatherDisplay:10.37,2013-05-23 18:51:00,
2013-05-23 15:00:00,88.7,60.6,30.01,WSW,238,4.9,4.9,39,0.00,FEW,,0.00,WeatherDisplay:10.37,2013-05-23 19:00:00,
2013-05-23 15:01:00,89.1,61.6,30.01,NNW,337,3.4,3.4,40,0.00,CLR,,0.00,WeatherDisplay:10.37,2013-05-23 19:01:00,
2013-05-23 15:05:00,88.7,60.6,30.01,West,259,5.8,5.8,39,0.00,CLR,,0.00,WeatherDisplay:10.37,2013-05-23 19:05:00,
2013-05-23 15:10:00,89.1,61.6,30.01,West,265,8.1,8.1,40,0.00,CLR,,0.00,WeatherDisplay:10.37,2013-05-23 19:10:00,
2013-05-23 15:16:00,89.8,61.5,29.98,NNW,348,6.3,6.3,39,0.00,CLR,,0.00,WeatherDisplay:10.37,2013-05-23 19:16:00,
2013-05-23 15:21:00,90.1,61.8,29.98,SSW,211,3.6,3.6,39,0.00,CLR,,0.00,WeatherDisplay:10.37,2013-05-23 19:21:00,
2013-05-23 15:31:00,90.1,60.4,29.98,NNW,327,8.1,8.1,37,0.00,CLR,,0.00,WeatherDisplay:10.37,2013-05-23 19:31:00,
2013-05-23 15:36:00,90.0,60.9,29.98,West,264,5.8,5.8,38,0.00,CLR,,0.00,WeatherDisplay:10.37,2013-05-23 19:36:00,
2013-05-23 15:46:00,89.4,61.2,29.98,WNW,289,8.1,8.1,39,0.00,CLR,,0.00,WeatherDisplay:10.37,2013-05-23 19:46:00,
2013-05-23 15:51:00,89.8,60.8,29.98,WNW,288,10.3,10.3,38,0.00,CLR,,0.00,WeatherDisplay:10.37,2013-05-23 19:51:00,
2013-05-23 16:00:00,90.3,61.3,29.95,NNW,348,6.3,6.3,38,0.00,CLR,,0.00,WeatherDisplay:10.37,2013-05-23 20:00:00,
2013-05-23 16:01:00,90.7,60.8,29.95,NW,325,8.3,8.3,37,0.00,CLR,,0.00,WeatherDisplay:10.37,2013-05-23 20:01:00,
2013-05-23 16:05:00,90.9,61.0,29.95,WNW,283,8.1,8.1,37,0.00,CLR,,0.00,WeatherDisplay:10.37,2013-05-23 20:05:00,
2013-05-23 16:10:00,90.7,60.8,29.95,NW,313,8.1,8.1,37,0.00,CLR,,0.00,WeatherDisplay:10.37,2013-05-23 20:10:00,
2013-05-23 16:16:00,90.3,61.3,29.98,North,0,6.3,6.3,38,0.00,CLR,,0.00,WeatherDisplay:10.37,2013-05-23 20:16:00,
2013-05-23 16:21:00,91.2,61.3,29.98,North,357,9.2,9.2,37,0.00,CLR,,0.00,WeatherDisplay:10.37,2013-05-23 20:21:00,
2013-05-23 16:31:00,90.5,61.4,29.98,North,0,5.8,5.8,38,0.00,CLR,,0.00,WeatherDisplay:10.37,2013-05-23 20:31:00,
2013-05-23 16:36:00,91.0,60.4,29.98,NW,308,8.1,8.1,36,0.00,CLR,,0.00,WeatherDisplay:10.37,2013-05-23 20:36:00,
2013-05-23 16:46:00,90.9,59.4,29.98,NW,316,9.2,9.2,35,0.00,CLR,,0.00,WeatherDisplay:10.37,2013-05-23 20:46:00,
2013-05-23 16:51:00,91.0,59.6,29.98,WSW,258,5.8,5.8,35,0.00,CLR,,0.00,WeatherDisplay:10.37,2013-05-23 20:51:00,
2013-05-23 17:00:00,91.4,59.9,29.98,NNW,340,5.8,5.8,35,0.00,CLR,,0.00,WeatherDisplay:10.37,2013-05-23 21:00:00,
2013-05-23 17:01:00,90.9,61.0,29.98,NW,324,8.1,8.3,37,0.00,CLR,,0.00,WeatherDisplay:10.37,2013-05-23 21:01:00,
2013-05-23 17:05:00,91.2,59.7,29.98,WSW,254,8.1,8.1,35,0.00,CLR,,0.00,WeatherDisplay:10.37,2013-05-23 21:05:00,
2013-05-23 17:10:00,90.9,61.0,29.98,North,0,8.3,8.3,37,0.00,CLR,,0.00,WeatherDisplay:10.37,2013-05-23 21:10:00,
2013-05-23 17:16:00,90.7,60.8,29.98,NNW,339,5.8,5.8,37,0.00,CLR,,0.00,WeatherDisplay:10.37,2013-05-23 21:16:00,
2013-05-23 17:21:00,90.3,59.7,29.98,SW,230,8.1,8.1,36,0.00,CLR,,0.00,WeatherDisplay:10.37,2013-05-23 21:21:00,
2013-05-23 17:31:00,89.6,61.4,29.98,North,5,8.1,8.1,39,0.00,CLR,,0.00,WeatherDisplay:10.37,2013-05-23 21:31:00,
2013-05-23 17:36:00,89.4,61.2,29.98,West,271,8.3,8.3,39,0.00,CLR,,0.00,WeatherDisplay:10.37,2013-05-23 21:36:00,
2013-05-23 17:46:00,89.1,61.6,29.98,NE,35,5.8,5.8,40,0.00,CLR,,0.00,WeatherDisplay:10.37,2013-05-23 21:46:00,
2013-05-23 17:51:00,89.1,61.6,29.98,NNW,334,8.1,8.1,40,0.00,CLR,,0.00,WeatherDisplay:10.37,2013-05-23 21:51:00,
2013-05-23 18:00:00,88.3,61.0,29.98,WSW,253,5.8,5.8,40,0.00,CLR,,0.00,WeatherDisplay:10.37,2013-05-23 22:00:00,
2013-05-23 18:01:00,89.1,61.6,29.98,North,353,5.8,5.8,40,0.00,CLR,,0.00,WeatherDisplay:10.37,2013-05-23 22:01:00,
2013-05-23 18:05:00,88.7,62.0,29.98,NW,326,9.2,9.2,41,0.00,CLR,,0.00,WeatherDisplay:10.37,2013-05-23 22:05:00,
2013-05-23 18:10:00,89.1,61.6,29.98,NW,311,5.8,5.8,40,0.00,CLR,,0.00,WeatherDisplay:10.37,2013-05-23 22:10:00,
2013-05-23 18:16:00,89.2,62.5,29.98,North,3,8.1,8.1,41,0.00,CLR,,0.00,WeatherDisplay:10.37,2013-05-23 22:16:00,
2013-05-23 18:21:00,88.9,61.4,29.98,WNW,295,9.2,9.2,40,0.00,CLR,,0.00,WeatherDisplay:10.37,2013-05-23 22:21:00,
2013-05-23 18:31:00,88.2,61.5,29.98,WNW,303,9.2,9.2,41,0.00,CLR,,0.00,WeatherDisplay:10.37,2013-05-23 22:31:00,
2013-05-23 18:36:00,88.0,61.3,29.98,North,357,6.9,6.9,41,0.00,CLR,,0.00,WeatherDisplay:10.37,2013-05-23 22:36:00,
2013-05-23 18:46:00,86.9,62.4,29.98,NNW,344,5.8,5.8,44,0.00,CLR,,0.00,WeatherDisplay:10.37,2013-05-23 22:46:00,
2013-05-23 18:51:00,87.1,62.5,29.98,North,357,6.3,6.3,44,0.00,CLR,,0.00,WeatherDisplay:10.37,2013-05-23 22:51:00,
2013-05-23 19:00:00,87.1,61.9,29.98,NNW,335,5.8,5.8,43,0.00,CLR,,0.00,WeatherDisplay:10.37,2013-05-23 23:00:00,
2013-05-23 19:01:00,86.5,62.7,29.98,NNW,344,8.1,8.1,45,0.00,CLR,,0.00,WeatherDisplay:10.37,2013-05-23 23:01:00,
2013-05-23 19:05:00,86.9,62.4,29.98,North,357,5.8,5.8,44,0.00,CLR,,0.00,WeatherDisplay:10.37,2013-05-23 23:05:00,
2013-05-23 19:10:00,86.5,62.7,29.98,NNW,344,8.1,8.1,45,0.00,CLR,,0.00,WeatherDisplay:10.37,2013-05-23 23:10:00,
2013-05-23 19:16:00,86.0,63.4,29.98,West,267,4.9,4.9,47,0.00,CLR,,0.00,WeatherDisplay:10.37,2013-05-23 23:16:00,
2013-05-23 19:21:00,85.3,63.4,29.98,West,276,5.8,5.8,48,0.00,CLR,,0.00,WeatherDisplay:10.37,2013-05-23 23:21:00,
2013-05-23 19:31:00,84.0,64.5,29.98,SW,234,4.6,4.6,52,0.00,CLR,,0.00,WeatherDisplay:10.37,2013-05-23 23:31:00,
2013-05-23 19:36:00,83.3,65.4,29.98,WNW,288,5.8,5.8,55,0.00,CLR,,0.00,WeatherDisplay:10.37,2013-05-23 23:36:00,
2013-05-23 19:46:00,82.2,66.0,29.98,NW,316,8.1,8.1,58,0.00,CLR,,0.00,WeatherDisplay:10.37,2013-05-23 23:46:00,
2013-05-23 19:51:00,81.9,66.1,29.98,North,353,8.1,8.1,59,0.00,CLR,,0.00,WeatherDisplay:10.37,2013-05-23 23:51:00,
2013-05-23 20:00:00,81.7,66.4,29.98,NW,317,4.0,4.0,60,0.00,CLR,,0.00,WeatherDisplay:10.37,2013-05-24 00:00:00,
2013-05-23 20:01:00,81.5,66.8,29.98,North,353,8.1,8.1,61,0.00,CLR,,0.00,WeatherDisplay:10.37,2013-05-24 00:01:00,
2013-05-23 20:05:00,81.7,66.4,29.98,ENE,71,5.8,5.8,60,0.00,CLR,,0.00,WeatherDisplay:10.37,2013-05-24 00:05:00,
2013-05-23 20:10:00,81.5,66.8,29.98,NNW,331,8.1,8.1,61,0.00,CLR,,0.00,WeatherDisplay:10.37,2013-05-24 00:10:00,
2013-05-23 20:16:00,81.1,67.3,29.98,West,280,6.9,6.9,63,0.00,CLR,,0.00,WeatherDisplay:10.37,2013-05-24 00:16:00,
2013-05-23 20:21:00,80.8,67.5,29.98,West,271,4.0,4.0,64,0.00,CLR,,0.00,WeatherDisplay:10.37,2013-05-24 00:21:00,
2013-05-23 20:31:00,80.6,67.7,29.98,NNW,342,3.4,3.4,65,0.00,CLR,,0.00,WeatherDisplay:10.37,2013-05-24 00:31:00,
2013-05-23 20:36:00,80.4,67.1,29.98,North,0,5.8,5.8,64,0.00,CLR,,0.00,WeatherDisplay:10.37,2013-05-24 00:36:00,
2013-05-23 20:46:00,80.4,67.6,29.98,NW,318,4.6,4.6,65,0.00,CLR,,0.00,WeatherDisplay:10.37,2013-05-24 00:46:00,
2013-05-23 20:51:00,80.2,67.4,29.98,WNW,294,6.3,6.3,65,0.00,CLR,,0.00,WeatherDisplay:10.37,2013-05-24 00:51:00,
2013-05-23 21:00:00,80.1,67.7,29.98,NW,306,4.9,0.0,66,0.00,CLR,,0.00,WeatherDisplay:10.37,2013-05-24 01:00:00,
2013-05-23 21:01:00,79.9,67.5,29.98,West,271,4.0,4.0,66,0.00,CLR,,0.00,WeatherDisplay:10.37,2013-05-24 01:01:00,
2013-05-23 21:05:00,80.1,67.7,29.98,NW,315,5.8,5.8,66,0.00,CLR,,0.00,WeatherDisplay:10.37,2013-05-24 01:05:00,
2013-05-23 21:10:00,79.9,67.5,29.98,NNW,339,3.4,3.4,66,0.00,CLR,,0.00,WeatherDisplay:10.37,2013-05-24 01:10:00,
2013-05-23 21:16:00,79.7,67.8,30.01,NW,321,4.0,4.0,67,0.00,CLR,,0.00,WeatherDisplay:10.37,2013-05-24 01:16:00,
2013-05-23 21:21:00,79.7,67.8,30.01,NNW,331,5.8,5.8,67,0.00,CLR,,0.00,WeatherDisplay:10.37,2013-05-24 01:21:00,
2013-05-23 21:31:00,79.7,67.8,30.01,West,268,5.8,5.8,67,0.00,CLR,,0.00,WeatherDisplay:10.37,2013-05-24 01:31:00,
2013-05-23 21:36:00,79.5,67.6,30.01,West,262,3.6,0.0,67,0.00,CLR,,0.00,WeatherDisplay:10.37,2013-05-24 01:36:00,
2013-05-23 21:46:00,79.3,67.9,30.01,WNW,283,3.4,3.4,68,0.00,CLR,,0.00,WeatherDisplay:10.37,2013-05-24 01:46:00,
2013-05-23 21:51:00,79.2,67.7,30.01,West,274,2.7,0.0,68,0.00,CLR,,0.00,WeatherDisplay:10.37,2013-05-24 01:51:00,
2013-05-23 22:00:00,79.0,67.5,30.01,SW,218,3.4,3.4,68,0.00,CLR,,0.00,WeatherDisplay:10.37,2013-05-24 02:00:00,
2013-05-23 22:01:00,79.0,67.5,30.01,NW,321,0.0,0.0,68,0.00,CLR,,0.00,WeatherDisplay:10.37,2013-05-24 02:01:00,
2013-05-23 22:05:00,79.0,67.5,30.01,North,0,3.4,0.0,68,0.00,CLR,,0.00,WeatherDisplay:10.37,2013-05-24 02:05:00,
2013-05-23 22:10:00,79.0,67.5,30.01,NNW,339,0.0,0.0,68,0.00,CLR,,0.00,WeatherDisplay:10.37,2013-05-24 02:10:00,
2013-05-23 22:16:00,78.8,67.3,30.01,WSW,250,2.7,0.0,68,0.00,CLR,,0.00,WeatherDisplay:10.37,2013-05-24 02:16:00,
2013-05-23 22:21:00,78.6,67.6,30.01,WSW,253,0.0,0.0,69,0.00,CLR,,0.00,WeatherDisplay:10.37,2013-05-24 02:21:00,
2013-05-23 22:31:00,78.4,67.4,30.01,SW,233,0.0,0.0,69,0.00,CLR,,0.00,WeatherDisplay:10.37,2013-05-24 02:31:00,
2013-05-23 22:36:00,78.3,67.3,30.01,SW,233,0.0,0.0,69,0.00,CLR,,0.00,WeatherDisplay:10.37,2013-05-24 02:36:00,
2013-05-23 22:46:00,77.9,66.9,30.01,SW,233,0.0,0.0,69,0.00,CLR,,0.00,WeatherDisplay:10.37,2013-05-24 02:46:00,
2013-05-23 22:51:00,77.7,66.7,30.01,SW,233,0.0,0.0,69,0.00,CLR,,0.00,WeatherDisplay:10.37,2013-05-24 02:51:00,
2013-05-23 23:00:00,77.4,66.4,30.01,SW,216,2.3,0.0,69,0.00,CLR,,0.00,WeatherDisplay:10.37,2013-05-24 03:00:00,
2013-05-23 23:01:00,77.2,66.6,30.01,West,264,0.0,0.0,70,0.00,CLR,,0.00,WeatherDisplay:10.37,2013-05-24 03:01:00,
2013-05-23 23:05:00,77.4,66.8,30.01,NW,313,2.3,0.0,70,0.00,CLR,,0.00,WeatherDisplay:10.37,2013-05-24 03:05:00,
2013-05-23 23:10:00,77.2,66.6,30.01,West,264,0.0,0.0,70,0.00,CLR,,0.00,WeatherDisplay:10.37,2013-05-24 03:10:00,
2013-05-23 23:16:00,77.0,66.5,30.01,WSW,253,0.0,0.0,70,0.00,CLR,,0.00,WeatherDisplay:10.37,2013-05-24 03:16:00,
2013-05-23 23:21:00,76.6,66.1,30.01,WSW,253,0.0,0.0,70,0.00,CLR,,0.00,WeatherDisplay:10.37,2013-05-24 03:21:00,
2013-05-23 23:31:00,76.3,66.2,30.01,WSW,253,0.0,0.0,71,0.00,CLR,,0.00,WeatherDisplay:10.37,2013-05-24 03:31:00,
2013-05-23 23:36:00,76.1,66.0,30.01,WSW,253,0.0,0.0,71,0.00,CLR,,0.00,WeatherDisplay:10.37,2013-05-24 03:36:00,
2013-05-23 23:46:00,75.7,65.7,30.01,WSW,253,0.0,0.0,71,0.00,CLR,,0.00,WeatherDisplay:10.37,2013-05-24 03:46:00,
2013-05-23 23:51:00,75.7,66.1,30.01,WSW,253,0.0,0.0,72,0.00,CLR,,0.00,WeatherDisplay:10.37,2013-05-24 03:51:00,